Time;durP1;ratioP1;P1;durP2;ratioP2;P2;SDS_P1;SDS_P2;PMS_P1;PMS_P2;Temp;Humidity;BMP_temperature;BMP_pressure;BME280_temperature;BME280_humidity;BME280_pressure;Samples;Min_cycle;Max_cycle;Signal;HPM_P1;HPM_P2
2022/05/30 00:01:25;;;;;;;0.10;0.10;;;;;;;20.30;73.82;99416.81;5074875;28;20383;-73
2022/05/30 00:03:51;;;;;;;0.20;0.20;;;;;;;20.32;73.58;99405.84;5076021;28;20070;-73
2022/05/30 00:06:19;;;;;;;0.10;0.10;;;;;;;20.36;73.27;99423.50;5074234;28;20025;-73
2022/05/30 00:08:45;;;;;;;0.20;0.20;;;;;;;20.38;73.40;99409.72;5073403;28;20058;-73
2022/05/30 00:11:13;;;;;;;0.17;0.17;;;;;;;20.26;73.66;99412.50;5074270;28;20457;-72
2022/05/30 00:13:40;;;;;;;0.10;0.10;;;;;;;20.26;74.03;99418.16;5074039;28;20473;-73
2022/05/30 00:16:12;;;;;;;0.17;0.17;;;;;;;20.28;74.12;99410.81;5074016;28;20024;-73
2022/05/30 00:18:38;;;;;;;0.20;0.20;;;;;;;20.36;73.44;99403.72;5074011;28;20031;-73
2022/05/30 00:21:05;;;;;;;0.20;0.20;;;;;;;20.45;72.87;99402.25;5074239;28;20028;-73
2022/05/30 00:23:31;;;;;;;0.20;0.20;;;;;;;20.30;73.78;99413.22;5073910;28;20024;-73
2022/05/30 00:25:56;;;;;;;0.20;0.20;;;;;;;20.24;73.97;99410.16;5074019;28;20036;-73
2022/05/30 00:28:23;;;;;;;0.20;0.20;;;;;;;20.25;74.20;99408.09;5073701;28;20384;-73
2022/05/30 00:30:50;;;;;;;0.17;0.17;;;;;;;20.18;74.33;99406.25;5074652;28;20495;-72
2022/05/30 00:33:16;;;;;;;0.20;0.20;;;;;;;20.01;74.46;99402.69;5074603;28;20422;-73
2022/05/30 00:35:42;;;;;;;0.20;0.20;;;;;;;20.12;74.46;99408.06;5074654;28;20073;-73
2022/05/30 00:38:09;;;;;;;0.13;0.13;;;;;;;20.10;74.50;99410.53;5073675;28;20111;-72
2022/05/30 00:40:35;;;;;;;0.10;0.10;;;;;;;19.85;75.29;99403.53;5074706;28;20509;-73
2022/05/30 00:43:25;;;;;;;0.20;0.20;;;;;;;19.79;75.26;99393.25;5073468;28;20476;-72
2022/05/30 00:45:52;;;;;;;0.20;0.20;;;;;;;19.94;75.50;99410.59;5074966;28;20116;-73
2022/05/30 00:48:20;;;;;;;0.20;0.20;;;;;;;19.97;75.68;99402.00;5074648;28;20021;-73
2022/05/30 00:50:49;;;;;;;0.10;0.10;;;;;;;19.95;75.96;99407.31;5073582;28;20448;-73
2022/05/30 00:53:14;;;;;;;0.10;0.10;;;;;;;19.96;75.35;99402.47;5073221;28;20552;-73
2022/05/30 00:55:41;;;;;;;0.17;0.17;;;;;;;19.81;75.45;99394.38;5073548;28;20066;-73
2022/05/30 00:58:09;;;;;;;0.10;0.10;;;;;;;19.95;75.72;99407.31;5074415;28;20021;-73
2022/05/30 01:00:35;;;;;;;0.10;0.10;;;;;;;19.94;75.91;99400.09;5074401;28;20115;-73
2022/05/30 01:08:30;;;;;;;0.10;0.10;;;;;;;19.89;75.59;99406.28;5074556;28;20479;-73
2022/05/30 01:10:56;;;;;;;0.10;0.10;;;;;;;19.99;75.53;99410.06;5072937;28;20024;-74
2022/05/30 01:13:24;;;;;;;0.20;0.20;;;;;;;19.87;75.57;99392.63;5074323;28;20036;-73
2022/05/30 01:15:50;;;;;;;0.20;0.20;;;;;;;20.06;74.36;99399.34;5074136;28;20029;-73
2022/05/30 01:18:27;;;;;;;0.10;0.10;;;;;;;19.96;75.15;99402.47;5072803;28;20036;-73
2022/05/30 01:21:01;;;;;;;0.13;0.13;;;;;;;19.93;75.43;99411.84;5073193;28;20036;-73
2022/05/30 01:23:45;;;;;;;0.15;0.15;;;;;;;19.74;75.76;99394.56;5073298;28;20117;-73
2022/05/30 01:26:31;;;;;;;0.10;0.10;;;;;;;19.77;75.62;99393.69;5073708;28;20028;-72
2022/05/30 01:29:22;;;;;;;0.20;0.20;;;;;;;20.02;74.99;99406.31;5074206;28;20444;-73
2022/05/30 01:31:47;;;;;;;0.20;0.20;;;;;;;19.79;75.66;99410.97;5072535;28;20029;-73
2022/05/30 01:34:13;;;;;;;0.20;0.20;;;;;;;19.74;75.86;99405.88;5073869;28;20027;-73
2022/05/30 01:36:38;;;;;;;0.20;0.20;;;;;;;19.80;76.10;99414.59;5073849;28;20399;-73
2022/05/30 01:39:05;;;;;;;0.20;0.20;;;;;;;19.76;76.32;99413.88;5074143;28;20033;-73
2022/05/30 01:41:31;;;;;;;0.10;0.10;;;;;;;19.69;75.97;99403.59;5074360;28;20415;-73
2022/05/30 01:43:57;;;;;;;0.10;0.10;;;;;;;19.77;75.71;99413.47;5072743;28;20064;-73
2022/05/30 01:46:23;;;;;;;0.13;0.13;;;;;;;19.72;76.22;99405.53;5073497;28;20468;-73
2022/05/30 01:48:49;;;;;;;0.20;0.20;;;;;;;19.71;76.34;99409.59;5072842;28;20039;-73
2022/05/30 01:51:17;;;;;;;0.10;0.10;;;;;;;19.75;75.24;99413.09;5072654;28;20534;-73
2022/05/30 01:53:43;;;;;;;0.20;0.20;;;;;;;19.75;75.78;99410.25;5073301;28;20115;-73
2022/05/30 01:56:08;;;;;;;0.10;0.10;;;;;;;19.81;75.73;99414.13;5072303;28;20048;-72
2022/05/30 01:58:34;;;;;;;0.20;0.20;;;;;;;19.75;75.67;99407.44;5072599;28;20048;-72
2022/05/30 02:01:05;;;;;;;0.10;0.10;;;;;;;19.70;76.09;99412.84;5072605;28;20029;-73
2022/05/30 02:03:33;;;;;;;0.10;0.10;;;;;;;19.78;75.82;99415.03;5072813;28;20021;-73
2022/05/30 02:05:59;;;;;;;0.13;0.13;;;;;;;19.77;75.81;99410.63;5073774;28;20021;-73
2022/05/30 02:08:24;;;;;;;0.20;0.20;;;;;;;19.83;75.67;99408.84;5073762;28;20032;-73
2022/05/30 02:10:50;;;;;;;0.17;0.17;;;;;;;19.80;75.30;99404.09;5072558;28;20055;-73
2022/05/30 02:13:15;;;;;;;0.20;0.20;;;;;;;19.69;75.68;99406.41;5073510;28;20024;-72
2022/05/30 02:18:25;;;;;;;0.20;0.20;;;;;;;19.54;75.53;99411.59;5073093;28;20044;-73
2022/05/30 02:20:51;;;;;;;0.10;0.10;;;;;;;19.49;76.08;99408.50;5072235;28;20330;-73
2022/05/30 02:23:17;;;;;;;0.20;0.20;;;;;;;19.43;76.31;99410.28;5072057;28;20029;-73
2022/05/30 02:25:44;;;;;;;0.10;0.10;;;;;;;19.47;76.04;99411.78;5072366;28;20085;-73
2022/05/30 02:28:09;;;;;;;0.20;0.20;;;;;;;19.41;76.12;99409.94;5072305;28;20041;-73
2022/05/30 02:30:35;;;;;;;0.10;0.10;;;;;;;19.54;75.84;99416.44;5072018;28;20384;-73
2022/05/30 02:38:28;;;;;;;0.20;0.20;;;;;;;19.56;76.01;99422.44;5077154;28;20082;-73
2022/05/30 02:40:53;;;;;;;0.20;0.20;;;;;;;19.52;75.67;99418.94;5077080;28;20052;-73
2022/05/30 02:43:21;;;;;;;0.20;0.20;;;;;;;19.55;75.61;99418.06;5076108;28;20024;-73
2022/05/30 02:45:47;;;;;;;0.10;0.10;;;;;;;19.50;75.87;99418.59;5076013;28;20021;-73
2022/05/30 02:48:12;;;;;;;0.10;0.10;;;;;;;19.55;75.64;99409.59;5076288;28;20054;-73
2022/05/30 02:50:38;;;;;;;0.10;0.10;;;;;;;19.35;76.08;99401.22;5076024;28;20379;-73
2022/05/30 02:53:03;;;;;;;0.20;0.20;;;;;;;19.36;76.30;99406.41;5058945;28;20040;-73
2022/05/30 02:55:29;;;;;;;0.20;0.20;;;;;;;19.40;76.46;99425.28;5075831;28;20037;-73
2022/05/30 02:57:54;;;;;;;0.10;0.10;;;;;;;19.35;76.25;99430.22;5077071;28;20035;-73
2022/05/30 03:00:20;;;;;;;0.15;0.15;;;;;;;19.33;75.51;99429.88;5075742;28;20456;-73
2022/05/30 03:02:45;;;;;;;0.20;0.20;;;;;;;19.36;75.93;99442.28;5077009;28;20032;-73
2022/05/30 03:05:11;;;;;;;0.17;0.17;;;;;;;19.23;76.04;99425.28;5075378;28;20028;-73
2022/05/30 03:07:36;;;;;;;0.10;0.10;;;;;;;19.29;75.59;99434.81;5075623;28;20028;-73
2022/05/30 03:10:03;;;;;;;0.13;0.13;;;;;;;19.28;75.92;99418.31;5075896;28;20361;-73
2022/05/30 03:12:29;;;;;;;0.10;0.10;;;;;;;19.47;75.12;99439.22;5075164;28;20024;-73
2022/05/30 03:14:55;;;;;;;0.20;0.20;;;;;;;19.31;75.47;99437.97;5076248;28;20031;-73
2022/05/30 03:17:20;;;;;;;0.13;0.13;;;;;;;19.25;75.73;99436.91;5075456;28;20033;-73
2022/05/30 03:19:46;;;;;;;0.20;0.20;;;;;;;19.19;75.55;99438.69;5075455;28;20475;-73
2022/05/30 03:22:11;;;;;;;0.20;0.20;;;;;;;19.13;75.55;99443.25;5074840;28;20404;-73
2022/05/30 03:24:37;;;;;;;0.10;0.10;;;;;;;19.17;75.43;99445.97;5075641;28;20111;-73
2022/05/30 03:27:02;;;;;;;0.20;0.20;;;;;;;19.18;75.35;99462.47;5074847;28;20400;-73
2022/05/30 03:29:28;;;;;;;0.20;0.20;;;;;;;19.18;75.73;99462.47;5075316;28;20059;-73
2022/05/30 03:31:53;;;;;;;0.20;0.20;;;;;;;19.09;75.88;99451.78;5075614;28;20384;-72
2022/05/30 03:34:20;;;;;;;0.10;0.10;;;;;;;19.13;76.16;99463.00;5075912;28;20098;-73
2022/05/30 03:36:46;;;;;;;0.10;0.10;;;;;;;19.23;76.05;99464.78;5076096;28;20033;-73
2022/05/30 03:39:13;;;;;;;0.10;0.10;;;;;;;19.14;75.45;99442.03;5075679;28;20491;-73
2022/05/30 03:41:39;;;;;;;0.10;0.10;;;;;;;19.22;75.97;99465.97;5076645;28;20090;-72
2022/05/30 03:44:04;;;;;;;0.20;0.20;;;;;;;19.25;75.87;99467.94;5074955;28;20473;-73
2022/05/30 03:46:31;;;;;;;0.20;0.20;;;;;;;19.33;75.37;99471.38;5074663;28;20112;-72
2022/05/30 03:48:57;;;;;;;0.15;0.15;;;;;;;19.32;75.07;99472.59;5074964;28;20029;-73
2022/05/30 03:51:23;;;;;;;0.20;0.20;;;;;;;19.42;74.66;99473.59;5075735;28;20032;-73
2022/05/30 03:53:51;;;;;;;0.15;0.15;;;;;;;19.41;74.67;99480.47;5075507;28;20033;-73
2022/05/30 03:56:21;;;;;;;0.20;0.20;;;;;;;19.35;74.52;99480.19;5075627;28;20021;-73
2022/05/30 03:58:46;;;;;;;0.10;0.10;;;;;;;19.38;73.78;99473.66;5075774;28;20086;-73
2022/05/30 04:01:15;;;;;;;0.20;0.20;;;;;;;19.57;74.06;99492.53;5074491;28;20032;-73
2022/05/30 04:03:40;;;;;;;0.20;0.20;;;;;;;19.95;73.44;99494.03;5075658;28;20484;-73
2022/05/30 04:06:07;;;;;;;0.20;0.20;;;;;;;20.45;70.86;99501.94;5074284;28;20024;-73
2022/05/30 04:08:32;;;;;;;0.20;0.20;;;;;;;20.95;68.67;99505.41;5075820;28;20028;-73
2022/05/30 04:10:58;;;;;;;0.20;0.20;;;;;;;21.41;66.65;99504.78;5074203;28;20039;-73
2022/05/30 04:13:26;;;;;;;0.17;0.17;;;;;;;21.91;65.03;99513.66;5075456;28;20032;-73
2022/05/30 04:15:52;;;;;;;0.20;0.20;;;;;;;22.26;63.29;99505.19;5075405;28;20534;-73
2022/05/30 04:18:17;;;;;;;0.20;0.20;;;;;;;22.68;61.38;99500.78;5074617;28;20048;-73
2022/05/30 04:20:46;;;;;;;0.20;0.20;;;;;;;23.15;59.76;99516.06;5075799;28;20362;-73
2022/05/30 04:23:12;;;;;;;0.13;0.13;;;;;;;23.51;58.50;99516.22;5074935;28;20028;-73
2022/05/30 04:25:38;;;;;;;0.20;0.20;;;;;;;23.83;57.07;99510.50;5073852;28;20086;-73
2022/05/30 04:28:03;;;;;;;0.10;0.10;;;;;;;23.96;56.24;99534.66;5074123;28;20021;-73
2022/05/30 04:30:30;;;;;;;0.20;0.20;;;;;;;24.14;56.13;99533.94;5074555;28;20392;-73
2022/05/30 04:32:55;;;;;;;0.20;0.20;;;;;;;24.67;55.11;99539.34;5075072;28;20047;-73
2022/05/30 04:35:21;;;;;;;0.20;0.20;;;;;;;24.67;54.71;99541.41;5074545;28;20466;-73
2022/05/30 04:37:47;;;;;;;0.20;0.20;;;;;;;25.14;53.42;99545.75;5074078;28;20098;-73
2022/05/30 04:40:15;;;;;;;0.20;0.20;;;;;;;25.00;53.17;99542.28;5074515;28;20048;-73
2022/05/30 04:42:41;;;;;;;0.10;0.10;;;;;;;25.02;53.37;99558.88;5074474;28;20078;-73
2022/05/30 04:45:07;;;;;;;0.20;0.20;;;;;;;25.51;52.51;99558.59;5073398;28;20032;-74
2022/05/30 04:47:39;;;;;;;0.10;0.10;;;;;;;25.34;52.74;99563.88;5074906;28;20024;-73
2022/05/30 04:50:16;;;;;;;0.20;0.20;;;;;;;25.43;53.41;99554.53;5073584;28;20397;-73
2022/05/30 04:52:42;;;;;;;0.10;0.10;;;;;;;25.56;52.24;99555.09;5073639;28;20024;-74
2022/05/30 04:55:09;;;;;;;0.20;0.20;;;;;;;25.68;50.98;99561.88;5056366;28;20499;-73
2022/05/30 04:57:46;;;;;;;0.10;0.10;;;;;;;25.65;51.76;99562.03;5074649;28;20031;-73
2022/05/30 05:00:15;;;;;;;0.10;0.10;;;;;;;25.73;52.12;99566.91;5073668;28;20408;-73
2022/05/30 05:02:41;;;;;;;0.10;0.10;;;;;;;26.76;49.22;99560.09;5074115;28;20035;-73
2022/05/30 05:05:07;;;;;;;0.20;0.20;;;;;;;27.19;48.04;99578.56;5072775;28;20119;-73
2022/05/30 05:07:53;;;;;;;0.10;0.10;;;;;;;27.34;47.03;99582.22;5073280;28;20033;-74
2022/05/30 05:10:26;;;;;;;0.10;0.10;;;;;;;27.84;45.34;99581.47;5073495;28;20484;-73
2022/05/30 05:12:52;;;;;;;0.10;0.10;;;;;;;27.98;45.43;99586.38;5072844;28;20112;-73
2022/05/30 05:15:17;;;;;;;0.10;0.10;;;;;;;28.34;44.48;99582.22;5072757;28;20108;-73
2022/05/30 05:17:46;;;;;;;0.10;0.10;;;;;;;28.05;45.31;99585.94;5072747;28;20056;-74
2022/05/30 05:20:11;;;;;;;0.10;0.10;;;;;;;27.91;44.76;99578.19;5073984;28;20032;-74
2022/05/30 05:22:37;;;;;;;0.10;0.10;;;;;;;27.78;44.66;99560.59;5072563;28;20496;-73
2022/05/30 05:25:06;;;;;;;0.10;0.10;;;;;;;27.49;44.58;99575.72;5074361;28;20051;-73
2022/05/30 05:27:31;;;;;;;0.15;0.15;;;;;;;26.81;46.76;99579.38;5072617;28;20086;-73
2022/05/30 05:29:57;;;;;;;0.10;0.10;;;;;;;26.55;47.27;99582.75;5074120;28;20039;-73
2022/05/30 05:32:22;;;;;;;0.10;0.10;;;;;;;26.47;47.12;99584.41;5072624;28;20082;-73
2022/05/30 05:34:50;;;;;;;0.20;0.20;;;;;;;25.80;49.17;99602.84;5072927;28;20532;-73
2022/05/30 05:37:17;;;;;;;0.10;0.10;;;;;;;26.65;47.33;99583.47;5073870;28;20058;-73
2022/05/30 05:39:43;;;;;;;0.10;0.10;;;;;;;27.41;45.61;99590.38;5072002;28;20052;-73
2022/05/30 05:42:09;;;;;;;0.10;0.10;;;;;;;27.47;45.70;99598.25;5073837;28;20032;-73
2022/05/30 05:44:36;;;;;;;0.10;0.10;;;;;;;27.68;45.06;99594.97;5072026;28;20051;-73
2022/05/30 05:47:02;;;;;;;0.10;0.10;;;;;;;27.43;45.75;99598.44;5073898;28;20107;-73
2022/05/30 05:49:27;;;;;;;0.10;0.10;;;;;;;27.03;46.72;99599.00;5072231;28;20025;-73
2022/05/30 05:51:57;;;;;;;0.10;0.10;;;;;;;27.03;47.07;99608.34;5071912;28;20116;-74
2022/05/30 05:54:23;;;;;;;0.10;0.10;;;;;;;26.78;47.66;99608.88;5072791;28;20114;-72
2022/05/30 05:56:49;;;;;;;0.10;0.10;;;;;;;27.15;46.54;99615.88;5073382;28;20024;-72
2022/05/30 05:59:16;;;;;;;0.10;0.10;;;;;;;26.82;47.67;99612.34;5055941;28;20029;-72
2022/05/30 06:01:42;;;;;;;0.10;0.10;;;;;;;26.25;50.31;99618.91;5073318;28;20108;-72
2022/05/30 06:04:09;;;;;;;0.10;0.10;;;;;;;26.42;48.86;99621.34;5072231;28;20052;-72
2022/05/30 06:06:37;;;;;;;0.10;0.10;;;;;;;26.10;50.03;99620.91;5071514;28;20469;-72
2022/05/30 06:09:04;;;;;;;0.10;0.10;;;;;;;26.45;48.41;99621.19;5073170;28;20039;-72
2022/05/30 06:11:31;;;;;;;0.10;0.10;;;;;;;26.08;49.26;99632.78;5072243;28;20033;-72
2022/05/30 06:13:57;;;;;;;0.10;0.10;;;;;;;26.48;47.73;99631.63;5072779;28;20033;-73
2022/05/30 06:16:22;;;;;;;0.10;0.10;;;;;;;26.92;46.71;99636.69;5072142;28;20087;-72
2022/05/30 06:18:50;;;;;;;0.10;0.10;;;;;;;26.47;45.43;99643.50;5073311;28;20025;-72
2022/05/30 06:21:16;;;;;;;0.20;0.20;;;;;;;27.50;44.91;99640.13;5073364;28;20480;-73
2022/05/30 06:23:44;;;;;;;0.10;0.10;;;;;;;28.35;43.52;99637.38;5071824;28;20037;-73
2022/05/30 06:26:10;;;;;;;0.10;0.10;;;;;;;28.39;43.86;99655.09;5071588;28;20032;-73
2022/05/30 06:28:37;;;;;;;0.17;0.17;;;;;;;28.57;42.78;99662.63;5071952;28;20029;-73
2022/05/30 06:31:12;;;;;;;0.10;0.10;;;;;;;29.35;41.50;99662.78;5071699;28;20036;-73
2022/05/30 06:33:38;;;;;;;0.20;0.20;;;;;;;29.54;40.44;99669.00;5071783;28;20069;-73
2022/05/30 06:36:08;;;;;;;0.17;0.17;;;;;;;29.16;40.14;99671.72;5073321;28;20056;-73
2022/05/30 06:38:34;;;;;;;0.10;0.10;;;;;;;29.86;38.94;99679.19;5072998;28;20075;-73
2022/05/30 06:41:20;;;;;;;0.10;0.10;;;;;;;29.65;39.86;99667.03;5071320;28;20118;-74
2022/05/30 06:43:46;;;;;;;0.13;0.13;;;;;;;29.52;40.04;99669.50;5073284;28;20392;-73
2022/05/30 06:46:13;;;;;;;0.10;0.10;;;;;;;29.66;39.54;99665.72;5072879;28;20036;-73
2022/05/30 06:48:39;;;;;;;0.15;0.15;;;;;;;29.88;39.37;99658.59;5071958;28;20102;-73
2022/05/30 06:51:06;;;;;;;0.10;0.10;;;;;;;29.90;38.02;99650.28;5071540;28;20112;-73
2022/05/30 06:53:32;;;;;;;0.10;0.10;;;;;;;30.36;37.97;99678.00;5071884;28;20025;-73
2022/05/30 06:55:58;;;;;;;0.10;0.10;;;;;;;31.10;35.71;99677.09;5072990;28;20477;-73
2022/05/30 06:58:24;;;;;;;0.10;0.10;;;;;;;31.90;34.17;99685.38;5055066;28;20039;-73
2022/05/30 07:00:50;;;;;;;0.10;0.10;;;;;;;32.32;32.86;99681.41;5071597;28;20033;-73
2022/05/30 07:03:17;;;;;;;0.10;0.10;;;;;;;32.79;32.16;99682.38;5072316;28;20035;-73
2022/05/30 07:05:45;;;;;;;0.10;0.10;;;;;;;32.31;33.20;99686.41;5071693;28;20024;-73
2022/05/30 07:08:12;;;;;;;0.10;0.10;;;;;;;32.36;33.20;99676.22;5073040;28;20021;-73
2022/05/30 07:10:39;;;;;;;0.10;0.10;;;;;;;32.91;32.27;99679.47;5073048;28;20158;-73
2022/05/30 07:13:05;;;;;;;0.10;0.10;;;;;;;32.42;33.15;99681.94;5072444;28;20021;-73
2022/05/30 07:15:35;;;;;;;0.10;0.10;;;;;;;33.13;31.24;99679.34;5072755;28;20166;-73
2022/05/30 07:18:09;;;;;;;0.10;0.10;;;;;;;33.23;31.72;99688.47;5071670;28;20029;-73
2022/05/30 07:20:34;;;;;;;0.20;0.20;;;;;;;33.24;30.90;99687.97;5074427;28;20133;-73
2022/05/30 07:23:01;;;;;;;0.10;0.10;;;;;;;31.00;34.62;99688.00;5074648;28;20025;-73
2022/05/30 07:25:26;;;;;;;0.10;0.10;;;;;;;31.02;33.89;99696.91;5074735;28;20036;-73
2022/05/30 07:27:52;;;;;;;0.10;0.10;;;;;;;31.38;33.98;99703.09;5074674;28;20397;-73
2022/05/30 07:30:17;;;;;;;0.10;0.10;;;;;;;31.58;32.92;99705.72;5074333;28;20464;-72
2022/05/30 07:32:43;;;;;;;0.10;0.10;;;;;;;32.36;32.18;99701.34;5074551;28;20055;-72
2022/05/30 07:35:08;;;;;;;0.10;0.10;;;;;;;32.74;31.02;99699.66;5075584;28;20075;-73
2022/05/30 07:37:34;;;;;;;0.10;0.10;;;;;;;33.59;29.42;99698.00;5075384;28;20020;-73
2022/05/30 07:39:59;;;;;;;0.10;0.10;;;;;;;34.11;28.64;99702.84;5074127;28;20058;-72
2022/05/30 07:42:25;;;;;;;0.10;0.10;;;;;;;34.18;28.33;99705.16;5074390;28;20055;-72
2022/05/30 07:44:51;;;;;;;0.10;0.10;;;;;;;33.24;29.28;99705.25;5074304;28;20024;-73
2022/05/30 07:47:17;;;;;;;0.10;0.10;;;;;;;33.78;29.30;99710.44;5074400;28;20024;-73
2022/05/30 07:49:44;;;;;;;0.10;0.10;;;;;;;34.06;28.46;99700.81;5075817;28;20033;-72
2022/05/30 07:52:10;;;;;;;0.10;0.10;;;;;;;34.18;28.83;99708.03;5074929;28;20056;-73
2022/05/30 07:54:35;;;;;;;0.10;0.10;;;;;;;33.67;29.11;99704.75;5074553;28;20062;-73
2022/05/30 07:57:04;;;;;;;0.10;0.10;;;;;;;32.63;29.94;99699.69;5074083;28;20029;-74
2022/05/30 07:59:35;;;;;;;0.10;0.10;;;;;;;32.25;31.29;99687.72;5075458;28;20028;-73
2022/05/30 08:02:01;;;;;;;0.10;0.10;;;;;;;32.46;30.85;99697.66;5075744;28;20107;-74
2022/05/30 08:04:26;;;;;;;0.10;0.10;;;;;;;32.89;29.64;99697.28;5074244;28;20158;-74
2022/05/30 08:06:52;;;;;;;0.10;0.10;;;;;;;33.40;29.50;99694.13;5074099;28;20481;-74
2022/05/30 08:09:18;;;;;;;0.10;0.10;;;;;;;34.14;28.69;99696.00;5074074;28;20098;-74
2022/05/30 08:11:44;;;;;;;0.10;0.10;;;;;;;33.19;29.89;99693.75;5073815;28;20473;-74
2022/05/30 08:14:10;;;;;;;0.10;0.10;;;;;;;31.94;33.10;99703.94;5073497;28;20073;-73
2022/05/30 08:16:37;;;;;;;0.10;0.10;;;;;;;31.12;34.14;99698.28;5073871;28;20095;-73
2022/05/30 08:19:08;;;;;;;0.10;0.10;;;;;;;29.45;38.52;99695.72;5074592;28;20031;-73
2022/05/30 08:21:34;;;;;;;0.10;0.10;;;;;;;29.65;37.22;99689.16;5074257;28;20033;-73
2022/05/30 08:24:00;;;;;;;0.10;0.10;;;;;;;29.73;37.48;99685.34;5073471;28;20040;-73
2022/05/30 08:26:26;;;;;;;0.10;0.10;;;;;;;29.04;39.63;99689.28;5075098;28;20042;-73
2022/05/30 08:28:51;;;;;;;0.10;0.10;;;;;;;28.49;40.76;99690.06;5073914;28;20514;-73
2022/05/30 08:31:17;;;;;;;0.10;0.10;;;;;;;28.30;40.79;99678.88;5073200;28;20400;-72
2022/05/30 08:33:43;;;;;;;0.13;0.13;;;;;;;27.99;40.54;99684.38;5073681;28;20487;-73
2022/05/30 08:36:11;;;;;;;0.10;0.10;;;;;;;28.46;40.46;99683.28;5073089;28;20024;-72
2022/05/30 08:38:39;;;;;;;0.10;0.10;;;;;;;28.22;41.15;99677.69;5073426;28;20060;-73
2022/05/30 08:43:55;;;;;;;0.10;0.10;;;;;;;27.68;42.77;99694.22;5074780;28;20090;-72
2022/05/30 08:46:32;;;;;;;0.15;0.15;;;;;;;28.04;41.73;99675.09;5073626;28;20369;-73
2022/05/30 08:49:22;;;;;;;0.20;0.20;;;;;;;27.03;43.41;99674.00;5073782;28;20028;-73
2022/05/30 08:52:06;;;;;;;0.10;0.10;;;;;;;27.84;42.65;99685.16;5074481;28;20111;-73
2022/05/30 08:54:46;;;;;;;0.10;0.10;;;;;;;27.70;41.31;99651.69;5074629;28;20031;-72
2022/05/30 08:57:50;;;;;;;0.13;0.13;;;;;;;27.87;41.59;99687.03;5073993;28;20035;-72
2022/05/30 09:00:16;;;;;;;0.10;0.10;;;;;;;27.36;42.65;99691.03;5072926;28;20033;-73
2022/05/30 09:03:05;;;;;;;0.20;0.20;;;;;;;27.18;43.52;99671.22;5073290;28;20044;-72
2022/05/30 09:05:54;;;;;;;0.10;0.10;;;;;;;26.73;43.78;99689.47;5072917;28;20085;-73
2022/05/30 09:08:36;;;;;;;0.10;0.10;;;;;;;27.05;43.00;99679.22;5074188;28;20020;-73
2022/05/30 09:11:40;;;;;;;0.10;0.10;;;;;;;27.01;42.74;99670.88;5073456;28;20036;-72
2022/05/30 09:14:19;;;;;;;0.10;0.10;;;;;;;26.95;43.73;99687.06;5073218;28;20029;-73
2022/05/30 09:16:51;;;;;;;0.10;0.10;;;;;;;27.06;43.23;99678.75;5072747;28;20033;-73
2022/05/30 09:19:22;;;;;;;0.10;0.10;;;;;;;27.14;43.36;99679.19;5072969;28;20450;-73
2022/05/30 09:21:48;;;;;;;0.10;0.10;;;;;;;27.33;42.62;99668.41;5072444;28;20123;-72
2022/05/30 09:24:17;;;;;;;0.10;0.10;;;;;;;27.66;42.47;99686.13;5074167;28;20115;-72
2022/05/30 09:26:45;;;;;;;0.10;0.10;;;;;;;27.45;42.61;99678.75;5072542;28;20037;-73
2022/05/30 09:29:27;;;;;;;0.10;0.10;;;;;;;27.14;43.41;99694.25;5072736;28;20024;-73
2022/05/30 09:32:14;;;;;;;0.10;0.10;;;;;;;27.65;42.83;99698.84;5074257;28;20083;-73
2022/05/30 09:34:47;;;;;;;0.10;0.10;;;;;;;27.99;42.27;99690.09;5073361;28;20024;-73
2022/05/30 09:37:29;;;;;;;0.10;0.10;;;;;;;27.94;41.84;99700.13;5072922;28;20131;-72
2022/05/30 09:39:54;;;;;;;0.10;0.10;;;;;;;27.73;42.06;99695.63;5072059;28;20079;-73
2022/05/30 09:42:28;;;;;;;0.10;0.10;;;;;;;27.51;42.31;99707.41;5073757;28;20396;-73
2022/05/30 09:45:10;;;;;;;0.13;0.13;;;;;;;27.20;42.84;99702.91;5072352;28;20481;-73
2022/05/30 09:47:35;;;;;;;0.10;0.10;;;;;;;27.49;41.99;99673.63;5073349;28;20047;-72
2022/05/30 09:50:14;;;;;;;0.10;0.10;;;;;;;27.81;40.77;99680.44;5072277;28;20028;-72
2022/05/30 09:52:40;;;;;;;0.10;0.10;;;;;;;27.35;42.62;99697.25;5073494;28;20024;-73
2022/05/30 09:55:35;;;;;;;0.10;0.10;;;;;;;28.50;40.79;99683.06;5072612;28;20373;-72
2022/05/30 09:58:05;;;;;;;0.10;0.10;;;;;;;27.79;42.20;99688.72;5073862;28;20051;-73
2022/05/30 10:00:41;;;;;;;0.10;0.10;;;;;;;27.49;41.80;99698.56;5072300;28;20020;-73
2022/05/30 10:03:25;;;;;;;0.20;0.20;;;;;;;27.92;41.30;99702.72;5072515;28;20319;-72
2022/05/30 10:05:50;;;;;;;0.10;0.10;;;;;;;28.36;40.63;99694.06;5072536;28;20436;-72
2022/05/30 10:08:34;;;;;;;0.20;0.20;;;;;;;28.31;40.99;99699.69;5071832;28;20036;-72
2022/05/30 10:11:01;;;;;;;0.10;0.10;;;;;;;28.27;41.03;99697.00;5071895;28;20033;-73
2022/05/30 10:13:34;;;;;;;0.10;0.10;;;;;;;28.95;39.55;99684.47;5072676;28;20407;-73
2022/05/30 10:16:01;;;;;;;0.10;0.10;;;;;;;28.57;40.67;99694.91;5071721;28;20039;-72
2022/05/30 10:18:35;;;;;;;0.10;0.10;;;;;;;28.09;40.85;99706.63;5073428;28;20025;-74
2022/05/30 10:21:11;;;;;;;0.10;0.10;;;;;;;27.89;41.27;99697.97;5072110;28;20056;-73
2022/05/30 10:29:41;;;;;;;0.15;0.15;;;;;;;27.96;41.87;99711.84;5073114;28;20098;-73
2022/05/30 10:32:20;;;;;;;0.10;0.10;;;;;;;27.67;41.54;99712.63;5071797;28;20029;-73
2022/05/30 10:35:32;;;;;;;0.20;0.20;;;;;;;27.44;42.53;99713.50;5072915;28;20052;-72
2022/05/30 10:38:33;;;;;;;0.10;0.10;;;;;;;27.76;42.16;99708.94;5051089;28;20596;-72
2022/05/30 10:41:21;;;;;;;0.20;0.20;;;;;;;28.26;41.50;99706.09;5050377;28;20135;-73
2022/05/30 10:44:09;;;;;;;0.10;0.10;;;;;;;28.23;41.46;99707.91;5069960;28;20033;-73
2022/05/30 10:46:53;;;;;;;0.10;0.10;;;;;;;28.20;40.99;99703.94;5073325;28;20020;-72
2022/05/30 10:49:21;;;;;;;0.10;0.10;;;;;;;27.71;42.05;99713.25;5073360;28;20034;-73
2022/05/30 10:51:57;;;;;;;0.10;0.10;;;;;;;27.17;43.63;99721.06;5071543;28;20058;-74
2022/05/30 10:54:42;;;;;;;0.13;0.13;;;;;;;27.99;42.54;99708.03;5074557;28;20029;-73
2022/05/30 10:57:26;;;;;;;0.10;0.10;;;;;;;28.12;41.04;99716.28;5076223;28;20364;-72
2022/05/30 10:59:56;;;;;;;0.10;0.10;;;;;;;28.09;41.37;99718.06;5075378;28;20024;-73
2022/05/30 11:02:43;;;;;;;0.20;0.20;;;;;;;27.96;41.80;99691.84;5077195;28;20037;-72
2022/05/30 11:05:15;;;;;;;0.10;0.10;;;;;;;28.09;41.80;99712.34;5077022;28;20031;-73
2022/05/30 11:08:10;;;;;;;0.10;0.10;;;;;;;28.11;40.89;99721.22;5076827;28;20024;-72
2022/05/30 11:10:57;;;;;;;0.10;0.10;;;;;;;28.10;41.46;99708.19;5074813;28;20029;-73
2022/05/30 11:13:45;;;;;;;0.20;0.20;;;;;;;27.68;41.90;99723.56;5075452;28;20381;-73
2022/05/30 11:16:36;;;;;;;0.10;0.10;;;;;;;27.56;42.10;99721.00;5076475;28;20059;-73
2022/05/30 11:19:23;;;;;;;0.10;0.10;;;;;;;27.91;41.11;99701.94;5074752;28;20074;-72
2022/05/30 11:22:14;;;;;;;0.10;0.10;;;;;;;27.70;42.39;99714.56;5076054;28;20024;-72
2022/05/30 11:24:40;;;;;;;0.10;0.10;;;;;;;27.67;41.77;99724.06;5075985;28;20060;-72
2022/05/30 11:27:27;;;;;;;0.10;0.10;;;;;;;27.80;42.56;99706.66;5058197;28;20520;-73
2022/05/30 11:30:17;;;;;;;0.10;0.10;;;;;;;28.04;41.60;99727.34;5074723;28;20028;-72
2022/05/30 11:33:37;;;;;;;0.10;0.10;;;;;;;27.74;41.44;99708.63;5075499;28;20376;-74
2022/05/30 11:36:27;;;;;;;0.10;0.10;;;;;;;27.93;41.09;99715.72;5053328;28;20024;-74
2022/05/30 11:39:16;;;;;;;0.10;0.10;;;;;;;28.09;41.40;99700.13;5073329;28;20036;-73
2022/05/30 11:42:12;;;;;;;0.10;0.10;;;;;;;28.37;40.93;99714.88;5075990;28;20461;-73
2022/05/30 11:44:51;;;;;;;0.10;0.10;;;;;;;27.94;42.71;99703.00;5074598;28;20074;-74
2022/05/30 11:47:41;;;;;;;0.10;0.10;;;;;;;28.42;41.12;99689.22;5075125;28;20024;-73
2022/05/30 11:50:10;;;;;;;0.10;0.10;;;;;;;28.37;38.55;99709.16;5076066;28;20021;-74
2022/05/30 11:52:58;;;;;;;0.10;0.10;;;;;;;28.38;40.12;99710.72;5074967;28;20028;-74
2022/05/30 11:55:38;;;;;;;0.10;0.10;;;;;;;28.48;40.83;99697.88;5074320;28;20028;-73
2022/05/30 11:58:11;;;;;;;0.10;0.10;;;;;;;28.50;39.08;99706.78;5074855;28;20388;-74
2022/05/30 12:00:44;;;;;;;0.20;0.20;;;;;;;28.57;38.82;99694.91;5075462;28;20495;-73
2022/05/30 12:03:46;;;;;;;0.10;0.10;;;;;;;28.49;40.01;99699.44;5074270;28;20150;-73
2022/05/30 12:06:49;;;;;;;0.10;0.10;;;;;;;28.39;39.48;99706.56;5073070;28;20484;-72
2022/05/30 12:09:40;;;;;;;0.10;0.10;;;;;;;28.37;39.65;99698.50;5074799;28;20024;-73
2022/05/30 12:12:44;;;;;;;0.10;0.10;;;;;;;28.71;40.44;99722.69;5074358;28;20029;-73
2022/05/30 12:15:09;;;;;;;0.10;0.10;;;;;;;28.27;42.17;99704.81;5070090;28;20106;-73